createdAt,value
2017-10-03T00:00:31.810Z,3.47
2017-10-03T00:02:57.791Z,6.53
2017-10-03T00:05:23.772Z,6.23
2017-10-03T00:07:50.497Z,3.73
2017-10-03T00:10:16.804Z,3.27
2017-10-03T00:12:43.524Z,4.60
2017-10-03T00:15:10.225Z,5.90
2017-10-03T00:17:36.206Z,4.07
2017-10-03T00:20:02.183Z,5.10
2017-10-03T00:22:28.125Z,4.10
2017-10-03T00:24:54.129Z,4.93
2017-10-03T00:27:20.452Z,4.47
2017-10-03T00:29:46.414Z,7.77
2017-10-03T00:32:13.133Z,5.50
2017-10-03T00:34:39.535Z,4.40
2017-10-03T00:37:05.476Z,5.97
2017-10-03T00:39:31.437Z,3.80
2017-10-03T00:41:57.452Z,4.40
2017-10-03T00:44:23.393Z,4.10
2017-10-03T00:46:50.078Z,6.03
2017-10-03T00:49:16.045Z,4.87
2017-10-03T00:51:42.012Z,4.40
2017-10-03T00:54:08.005Z,3.83
2017-10-03T00:56:33.984Z,3.97
2017-10-03T00:59:00.221Z,8.50
2017-10-03T01:01:26.177Z,5.10
2017-10-03T01:03:52.925Z,6.37
2017-10-03T01:06:18.881Z,9.40
2017-10-03T01:08:44.820Z,12.60
2017-10-03T01:11:11.512Z,13.00
2017-10-03T01:13:37.489Z,11.83
2017-10-03T01:16:03.464Z,10.30
2017-10-03T01:18:29.413Z,8.63
2017-10-03T01:20:55.422Z,11.37
2017-10-03T01:23:21.372Z,11.10
2017-10-03T01:25:48.042Z,11.23
2017-10-03T01:28:14.000Z,13.30
2017-10-03T01:30:39.957Z,13.40
2017-10-03T01:33:05.941Z,10.67
2017-10-03T01:35:31.916Z,7.10
2017-10-03T01:38:05.037Z,9.97
2017-10-03T01:40:30.968Z,10.03
2017-10-03T01:42:56.987Z,9.63
2017-10-03T01:45:22.960Z,7.07
2017-10-03T01:47:48.941Z,10.80
2017-10-03T01:50:15.664Z,8.03
2017-10-03T01:52:42.340Z,6.17
2017-10-03T01:55:08.289Z,9.60
2017-10-03T01:57:34.265Z,9.47
2017-10-03T02:00:00.217Z,7.73
2017-10-03T02:02:26.957Z,8.60
2017-10-03T02:04:52.968Z,10.80
2017-10-03T02:07:18.917Z,6.20
2017-10-03T02:09:44.913Z,5.40
2017-10-03T02:12:10.901Z,7.80
2017-10-03T02:14:36.839Z,9.93
2017-10-03T02:17:03.536Z,8.10
2017-10-03T02:19:29.515Z,12.93
2017-10-03T02:21:56.229Z,8.27
2017-10-03T02:24:22.235Z,4.33
2017-10-03T02:26:48.208Z,7.67
2017-10-03T02:29:14.212Z,11.03
2017-10-03T02:31:40.168Z,5.40
2017-10-03T02:34:06.092Z,6.20
2017-10-03T02:36:32.817Z,6.63
2017-10-03T02:38:59.514Z,9.70
2017-10-03T02:41:25.468Z,6.20
2017-10-03T02:43:51.456Z,14.73
2017-10-03T02:46:18.180Z,8.87
2017-10-03T02:48:44.864Z,9.23
2017-10-03T02:51:10.801Z,6.97
2017-10-03T02:53:37.513Z,7.07
2017-10-03T02:56:03.443Z,6.60
2017-10-03T02:58:30.164Z,8.83
2017-10-03T03:00:56.864Z,8.80
2017-10-03T03:03:22.865Z,8.73
2017-10-03T03:05:49.549Z,7.60
2017-10-03T03:08:15.520Z,8.47
2017-10-03T03:10:41.484Z,11.10
2017-10-03T03:13:07.428Z,11.30
2017-10-03T03:15:33.396Z,5.93
2017-10-03T03:17:59.372Z,5.23
2017-10-03T03:20:26.061Z,8.30
2017-10-03T03:22:59.212Z,7.23
2017-10-03T03:25:25.159Z,6.53
2017-10-03T03:27:51.242Z,11.03
2017-10-03T03:30:17.201Z,10.60
2017-10-03T03:32:43.888Z,7.17
2017-10-03T03:35:09.865Z,7.43
2017-10-03T03:37:35.858Z,7.10
2017-10-03T03:40:01.802Z,7.77
2017-10-03T03:42:27.741Z,10.20
2017-10-03T03:44:53.717Z,8.00
2017-10-03T03:47:19.708Z,8.20
2017-10-03T03:49:45.644Z,5.33
2017-10-03T03:52:11.585Z,8.17
2017-10-03T03:54:38.306Z,7.10
2017-10-03T03:57:04.997Z,7.83
2017-10-03T03:59:30.967Z,6.30
2017-10-03T04:01:56.937Z,7.60
2017-10-03T04:04:22.899Z,6.10
2017-10-03T04:06:48.892Z,6.43
2017-10-03T04:09:14.832Z,10.93
2017-10-03T04:11:40.785Z,7.43
2017-10-03T04:14:07.501Z,6.37
2017-10-03T04:16:34.176Z,6.47
2017-10-03T04:19:00.168Z,13.80
2017-10-03T04:21:26.104Z,9.73
2017-10-03T04:23:52.077Z,8.43
2017-10-03T04:26:18.056Z,6.27
2017-10-03T04:28:44.037Z,9.33
2017-10-03T04:31:10.004Z,11.00
2017-10-03T04:33:35.940Z,5.70
2017-10-03T04:36:01.917Z,9.50
2017-10-03T04:38:27.917Z,7.60
2017-10-03T04:40:53.934Z,7.07
2017-10-03T04:43:19.897Z,12.27
2017-10-03T04:45:45.870Z,7.37
2017-10-03T04:48:11.813Z,12.10
2017-10-03T04:50:37.761Z,11.13
2017-10-03T04:53:03.737Z,9.30
2017-10-03T04:55:29.693Z,10.03
2017-10-03T04:57:55.725Z,10.10
2017-10-03T05:00:21.712Z,11.37
2017-10-03T05:02:47.660Z,11.03
2017-10-03T05:05:13.648Z,9.30
2017-10-03T05:07:39.595Z,7.77
2017-10-03T05:10:06.284Z,12.10
2017-10-03T05:12:32.260Z,12.57
2017-10-03T05:14:58.213Z,10.37
2017-10-03T05:17:24.190Z,8.57
2017-10-03T05:19:50.181Z,13.63
2017-10-03T05:22:16.205Z,8.47
2017-10-03T05:24:42.204Z,8.43
2017-10-03T05:27:08.149Z,9.93
2017-10-03T05:29:34.134Z,10.70
2017-10-03T05:32:00.148Z,11.83
2017-10-03T05:34:26.182Z,9.00
2017-10-03T05:36:52.192Z,6.53
2017-10-03T05:39:18.140Z,10.63
2017-10-03T05:41:44.848Z,9.60
2017-10-03T05:44:10.821Z,10.33
2017-10-03T05:46:36.809Z,11.53
2017-10-03T05:49:02.757Z,11.10
2017-10-03T05:51:28.730Z,14.70
2017-10-03T05:53:54.717Z,10.70
2017-10-03T05:56:20.695Z,10.30
2017-10-03T05:58:46.636Z,10.70
2017-10-03T06:01:12.585Z,12.67
2017-10-03T06:03:38.559Z,13.03
2017-10-03T06:06:04.506Z,8.40
2017-10-03T06:08:30.493Z,12.10
2017-10-03T06:10:56.492Z,8.53
2017-10-03T06:13:22.472Z,10.70
2017-10-03T06:15:49.204Z,7.80
2017-10-03T06:18:15.147Z,7.27
2017-10-03T06:20:41.132Z,8.40
2017-10-03T06:23:07.108Z,10.27
2017-10-03T06:25:33.793Z,9.83
2017-10-03T06:27:59.768Z,9.70
2017-10-03T06:30:25.752Z,12.47
2017-10-03T06:32:52.486Z,9.20
2017-10-03T06:35:18.474Z,10.77
2017-10-03T06:37:44.434Z,8.70
2017-10-03T06:40:10.378Z,8.87
2017-10-03T06:42:36.373Z,13.17
2017-10-03T06:45:02.325Z,9.63
2017-10-03T06:47:29.020Z,12.30
2017-10-03T06:49:55.039Z,11.67
2017-10-03T06:52:20.977Z,8.43
2017-10-03T06:54:46.933Z,9.67
2017-10-03T06:57:12.904Z,9.67
2017-10-03T06:59:38.880Z,9.50
2017-10-03T07:02:04.824Z,10.70
2017-10-03T07:04:30.808Z,8.83
2017-10-03T07:06:57.506Z,6.40
2017-10-03T07:09:23.522Z,11.50
2017-10-03T07:11:49.468Z,13.30
2017-10-03T07:14:15.478Z,6.40
2017-10-03T07:16:41.512Z,7.20
2017-10-03T07:19:07.473Z,5.73
2017-10-03T07:21:34.164Z,9.80
2017-10-03T07:24:00.141Z,8.53
2017-10-03T07:26:26.141Z,6.17
2017-10-03T07:28:52.161Z,9.60
2017-10-03T07:31:18.104Z,7.17
2017-10-03T07:33:44.040Z,7.20
2017-10-03T07:36:10.792Z,7.63
2017-10-03T07:38:37.464Z,10.40
2017-10-03T07:41:03.404Z,10.47
2017-10-03T07:43:30.120Z,9.00
2017-10-03T07:45:56.853Z,5.87
2017-10-03T07:48:23.537Z,8.80
2017-10-03T07:50:49.510Z,5.83
2017-10-03T07:53:15.519Z,7.60
2017-10-03T07:55:41.461Z,6.93
2017-10-03T07:58:07.417Z,6.70
2017-10-03T08:00:49.109Z,5.47
2017-10-03T08:03:15.057Z,6.27
2017-10-03T08:05:41.045Z,7.33
2017-10-03T08:08:06.989Z,7.73
2017-10-03T08:10:32.928Z,6.10
2017-10-03T08:12:58.984Z,5.77
2017-10-03T08:15:24.944Z,5.90
2017-10-03T08:17:50.916Z,5.20
2017-10-03T08:20:16.888Z,5.13
2017-10-03T08:22:42.828Z,10.07
2017-10-03T08:25:08.814Z,4.80
2017-10-03T08:27:35.494Z,6.93
2017-10-03T08:30:02.169Z,5.43
2017-10-03T08:32:28.230Z,5.73
2017-10-03T08:34:54.922Z,4.40
2017-10-03T08:37:20.868Z,4.67
2017-10-03T08:39:47.588Z,3.77
2017-10-03T08:42:14.265Z,4.30
2017-10-03T08:44:40.229Z,4.40
2017-10-03T08:47:06.233Z,4.13
2017-10-03T08:49:32.957Z,3.77
2017-10-03T08:51:58.912Z,5.33
2017-10-03T08:54:24.864Z,8.00
2017-10-03T08:56:51.618Z,5.23
2017-10-03T08:59:17.561Z,8.70
2017-10-03T09:01:43.506Z,5.33
2017-10-03T09:04:10.221Z,6.93
2017-10-03T09:06:36.173Z,6.33
2017-10-03T09:09:02.158Z,5.50
2017-10-03T09:11:28.877Z,7.70
2017-10-03T09:13:55.565Z,7.10
2017-10-03T09:16:21.741Z,7.90
2017-10-03T09:18:47.718Z,6.33
2017-10-03T09:21:14.445Z,5.77
2017-10-03T09:23:41.140Z,6.07
2017-10-03T09:26:07.085Z,9.53
2017-10-03T09:28:33.800Z,5.37
2017-10-03T09:31:00.475Z,6.17
2017-10-03T09:33:26.497Z,6.70
2017-10-03T09:35:53.552Z,8.70
2017-10-03T09:38:19.535Z,6.40
2017-10-03T09:40:45.513Z,6.53
2017-10-03T09:43:11.448Z,12.97
2017-10-03T09:45:37.388Z,8.80
2017-10-03T09:48:03.353Z,11.13
2017-10-03T09:50:29.289Z,7.27
2017-10-03T09:52:55.281Z,8.43
2017-10-03T09:55:21.233Z,6.47
2017-10-03T09:57:47.904Z,7.40
2017-10-03T10:00:13.877Z,6.17
2017-10-03T10:02:39.810Z,5.20
2017-10-03T10:05:05.745Z,6.37
2017-10-03T10:07:32.080Z,11.97
2017-10-03T10:09:58.043Z,7.23
2017-10-03T10:12:23.992Z,7.67
2017-10-03T10:14:50.009Z,7.93
2017-10-03T10:17:15.944Z,8.97
2017-10-03T10:19:41.876Z,11.10
2017-10-03T10:22:07.848Z,7.97
2017-10-03T10:24:34.613Z,10.10
2017-10-03T10:27:00.557Z,16.53
2017-10-03T10:29:26.497Z,7.93
2017-10-03T10:31:52.500Z,8.73
2017-10-03T10:34:19.232Z,9.07
2017-10-03T10:36:45.174Z,12.30
2017-10-03T10:39:11.144Z,10.40
2017-10-03T10:41:37.885Z,8.80
2017-10-03T10:44:03.830Z,10.43
2017-10-03T10:46:29.804Z,11.07
2017-10-03T10:48:55.797Z,11.20
2017-10-03T10:51:21.818Z,12.30
2017-10-03T10:53:47.785Z,18.10
2017-10-03T10:56:13.820Z,8.13
2017-10-03T10:58:40.544Z,10.77
2017-10-03T11:01:07.241Z,17.27
2017-10-03T11:03:33.181Z,12.17
2017-10-03T11:05:59.896Z,14.60
2017-10-03T11:08:26.585Z,14.40
2017-10-03T11:10:52.582Z,16.40
2017-10-03T11:13:18.547Z,9.20
2017-10-03T11:15:45.261Z,17.73
2017-10-03T11:18:11.978Z,9.77
2017-10-03T11:20:38.692Z,13.50
2017-10-03T11:23:17.090Z,13.63
2017-10-03T11:25:43.064Z,13.33
2017-10-03T11:28:09.005Z,15.13
2017-10-03T11:30:34.993Z,10.33
2017-10-03T11:33:00.933Z,10.30
2017-10-03T11:35:26.913Z,9.00
2017-10-03T11:37:52.953Z,9.63
2017-10-03T11:40:18.892Z,15.13
2017-10-03T11:42:44.861Z,12.93
2017-10-03T11:45:10.801Z,9.93
2017-10-03T11:47:36.776Z,11.23
2017-10-03T11:50:02.734Z,9.30
2017-10-03T11:52:28.706Z,6.57
2017-10-03T11:54:55.424Z,10.03
2017-10-03T11:57:21.360Z,6.07
2017-10-03T11:59:47.328Z,5.80
2017-10-03T12:02:13.292Z,10.27
2017-10-03T12:04:39.228Z,9.43
2017-10-03T12:07:05.172Z,5.27
2017-10-03T12:09:31.913Z,4.90
2017-10-03T12:11:57.870Z,6.57
2017-10-03T12:14:23.864Z,5.60
2017-10-03T12:16:49.804Z,7.60
2017-10-03T12:19:15.792Z,7.63
2017-10-03T12:21:41.729Z,6.93
2017-10-03T12:24:07.668Z,5.53
2017-10-03T12:26:33.684Z,6.17
2017-10-03T12:28:59.615Z,4.63
2017-10-03T12:31:25.576Z,4.60
2017-10-03T12:33:52.318Z,6.10
2017-10-03T12:36:18.298Z,5.33
2017-10-03T12:38:44.260Z,6.97
2017-10-03T12:41:10.246Z,8.40
2017-10-03T12:43:36.181Z,5.37
2017-10-03T12:46:02.126Z,7.57
2017-10-03T12:48:28.106Z,5.70
2017-10-03T12:50:54.068Z,4.67
2017-10-03T12:53:20.048Z,7.60
2017-10-03T12:55:45.988Z,3.87
2017-10-03T12:58:11.922Z,11.90
2017-10-03T13:00:37.892Z,6.73
2017-10-03T13:03:04.609Z,5.07
2017-10-03T13:05:31.293Z,4.23
2017-10-03T13:07:57.269Z,2.93
2017-10-03T13:10:23.221Z,4.13
2017-10-03T13:12:49.188Z,5.30
2017-10-03T13:15:15.132Z,8.23
2017-10-03T13:17:41.124Z,4.57
2017-10-03T13:20:07.090Z,5.00
2017-10-03T13:22:33.783Z,3.03
2017-10-03T13:24:59.778Z,13.23
2017-10-03T13:27:26.489Z,8.80
2017-10-03T13:29:52.510Z,12.83
2017-10-03T13:32:18.491Z,6.93
2017-10-03T13:34:44.432Z,2.50
2017-10-03T13:37:10.436Z,3.30
2017-10-03T13:39:36.380Z,3.33
2017-10-03T13:42:03.097Z,2.70
2017-10-03T13:44:29.077Z,3.33
2017-10-03T13:46:55.037Z,3.10
2017-10-03T13:49:21.035Z,9.73
2017-10-03T13:51:47.748Z,2.57
2017-10-03T13:54:13.793Z,3.50
2017-10-03T13:56:39.753Z,3.73
2017-10-03T13:59:05.696Z,1.80
2017-10-03T14:01:31.683Z,2.03
2017-10-03T14:03:57.657Z,3.80
2017-10-03T14:06:23.697Z,1.33
2017-10-03T14:08:49.653Z,2.67
2017-10-03T14:11:15.633Z,3.00
2017-10-03T14:13:42.420Z,3.43
2017-10-03T14:16:08.413Z,2.50
2017-10-03T14:18:34.369Z,1.57
2017-10-03T14:21:01.109Z,2.93
2017-10-03T14:23:27.116Z,1.77
2017-10-03T14:25:53.821Z,1.07
2017-10-03T14:28:19.760Z,1.70
2017-10-03T14:30:45.741Z,1.70
2017-10-03T14:33:12.420Z,1.80
2017-10-03T14:35:38.429Z,6.10
2017-10-03T14:38:04.365Z,5.37
2017-10-03T14:40:30.317Z,2.67
2017-10-03T14:42:56.332Z,1.90
2017-10-03T14:45:22.299Z,2.70
2017-10-03T14:47:48.252Z,1.97
2017-10-03T14:50:14.232Z,4.03
2017-10-03T14:52:40.922Z,3.30
2017-10-03T14:55:06.896Z,5.50
2017-10-03T14:57:32.932Z,4.37
2017-10-03T14:59:58.932Z,3.90
2017-10-03T15:02:24.899Z,4.57
2017-10-03T15:04:51.680Z,5.40
2017-10-03T15:07:17.629Z,6.60
2017-10-03T15:09:44.304Z,6.03
2017-10-03T15:12:10.281Z,5.30
2017-10-03T15:14:36.225Z,5.00
2017-10-03T15:17:02.968Z,3.73
2017-10-03T15:19:28.928Z,4.80
2017-10-03T15:21:55.013Z,3.50
2017-10-03T15:24:21.712Z,2.70
2017-10-03T15:26:47.686Z,5.43
2017-10-03T15:29:13.691Z,4.50
2017-10-03T15:31:39.709Z,5.17
2017-10-03T15:34:05.705Z,4.30
2017-10-03T15:36:31.661Z,4.00
2017-10-03T15:38:57.608Z,6.97
2017-10-03T15:41:23.613Z,3.50
2017-10-03T15:43:49.552Z,3.83
2017-10-03T15:46:15.497Z,6.70
2017-10-03T15:48:41.464Z,5.17
2017-10-03T15:51:07.402Z,4.40
2017-10-03T15:53:33.372Z,3.30
2017-10-03T15:55:59.316Z,3.17
2017-10-03T15:58:25.321Z,6.57
2017-10-03T16:00:51.325Z,4.77
2017-10-03T16:03:17.273Z,9.13
2017-10-03T16:05:43.961Z,7.40
2017-10-03T16:08:09.945Z,5.83
2017-10-03T16:10:42.101Z,3.87
2017-10-03T16:13:08.079Z,6.30
2017-10-03T16:15:34.029Z,8.53
2017-10-03T16:18:00.022Z,4.90
2017-10-03T16:20:26.016Z,2.23
2017-10-03T16:22:52.015Z,3.13
2017-10-03T16:25:17.984Z,2.97
2017-10-03T16:27:43.928Z,2.83
2017-10-03T16:30:09.899Z,2.03
2017-10-03T16:32:37.421Z,3.37
2017-10-03T16:35:04.124Z,1.27
2017-10-03T16:37:30.133Z,3.80
2017-10-03T16:39:56.076Z,1.90
2017-10-03T16:42:22.181Z,2.97
2017-10-03T16:44:48.133Z,2.37
2017-10-03T16:47:14.817Z,3.03
2017-10-03T16:49:40.796Z,2.67
2017-10-03T16:52:06.742Z,3.07
2017-10-03T16:54:32.741Z,4.80
2017-10-03T16:56:58.693Z,3.20
2017-10-03T16:59:24.829Z,4.90
2017-10-03T17:01:50.824Z,7.33
2017-10-03T17:04:16.769Z,6.53
2017-10-03T17:06:42.741Z,5.40
2017-10-03T17:09:08.723Z,6.07
2017-10-03T17:11:35.413Z,8.07
2017-10-03T17:14:01.384Z,8.90
2017-10-03T17:16:27.426Z,8.77
2017-10-03T17:18:53.455Z,5.73
2017-10-03T17:21:19.403Z,7.03
2017-10-03T17:23:45.370Z,5.87
2017-10-03T17:26:11.402Z,6.03
2017-10-03T17:28:38.106Z,5.67
2017-10-03T17:31:04.066Z,6.03
2017-10-03T17:33:30.104Z,6.00
2017-10-03T17:35:56.069Z,6.00
2017-10-03T17:38:22.793Z,6.97
2017-10-03T17:40:49.527Z,7.60
2017-10-03T17:43:15.469Z,5.73
2017-10-03T17:45:41.408Z,5.70
2017-10-03T17:48:08.916Z,8.83
2017-10-03T17:50:34.852Z,7.93
2017-10-03T17:53:00.833Z,5.33
2017-10-03T17:55:26.794Z,8.77
2017-10-03T17:57:53.637Z,4.73
2017-10-03T18:00:19.646Z,5.87
2017-10-03T18:02:45.585Z,6.67
2017-10-03T18:05:11.567Z,6.63
2017-10-03T18:07:37.568Z,5.83
2017-10-03T18:10:03.512Z,9.20
2017-10-03T18:12:29.505Z,5.90
2017-10-03T18:14:55.465Z,7.30
2017-10-03T18:17:21.436Z,9.33
2017-10-03T18:19:47.455Z,7.70
2017-10-03T18:22:14.185Z,11.80
2017-10-03T18:24:40.169Z,10.37
2017-10-03T18:27:06.144Z,11.03
2017-10-03T18:29:32.877Z,7.37
2017-10-03T18:31:58.858Z,8.53
2017-10-03T18:34:24.857Z,6.93
2017-10-03T18:36:50.917Z,10.57
2017-10-03T18:39:16.903Z,7.67
2017-10-03T18:41:43.657Z,11.87
2017-10-03T18:44:09.644Z,8.67
2017-10-03T18:46:36.388Z,8.17
2017-10-03T18:49:02.345Z,11.13
2017-10-03T18:51:28.348Z,7.00
2017-10-03T18:53:54.333Z,8.70
2017-10-03T18:56:20.307Z,10.80
2017-10-03T18:58:46.304Z,8.40
2017-10-03T19:01:12.256Z,10.53
2017-10-03T19:03:38.201Z,10.77
2017-10-03T19:06:04.209Z,9.23
2017-10-03T19:08:30.221Z,9.73
2017-10-03T19:10:56.347Z,11.07
2017-10-03T19:13:23.110Z,10.00
2017-10-03T19:15:49.113Z,17.50
2017-10-03T19:18:15.096Z,14.03
2017-10-03T19:20:41.781Z,13.03
2017-10-03T19:23:07.721Z,19.33
2017-10-03T19:25:34.501Z,9.40
2017-10-03T19:28:00.483Z,9.83
2017-10-03T19:30:26.453Z,10.20
2017-10-03T19:32:52.413Z,7.73
2017-10-03T19:35:18.384Z,8.00
2017-10-03T19:37:45.125Z,7.33
2017-10-03T19:40:11.069Z,7.97
2017-10-03T19:42:37.017Z,11.20
2017-10-03T19:45:03.730Z,10.23
2017-10-03T19:47:29.675Z,9.70
2017-10-03T19:49:55.729Z,6.70
2017-10-03T19:52:21.720Z,5.20
2017-10-03T19:54:47.763Z,9.47
2017-10-03T19:57:13.715Z,8.70
2017-10-03T19:59:39.724Z,7.37
2017-10-03T20:02:05.740Z,9.20
2017-10-03T20:04:31.718Z,5.87
2017-10-03T20:06:58.468Z,6.53
2017-10-03T20:09:24.413Z,5.60
2017-10-03T20:11:50.367Z,6.00
2017-10-03T20:14:17.045Z,6.00
2017-10-03T20:16:43.053Z,4.87
2017-10-03T20:19:09.024Z,6.70
2017-10-03T20:21:35.001Z,5.77
2017-10-03T20:24:00.964Z,4.90
2017-10-03T20:26:26.999Z,5.30
2017-10-03T20:28:53.000Z,6.37
2017-10-03T20:31:18.969Z,8.80
2017-10-03T20:33:44.916Z,7.17
2017-10-03T20:36:10.892Z,8.17
2017-10-03T20:38:36.841Z,7.63
2017-10-03T20:41:02.853Z,5.10
2017-10-03T20:43:28.810Z,5.33
2017-10-03T20:45:54.820Z,5.67
2017-10-03T20:48:20.786Z,6.17
2017-10-03T20:50:46.734Z,6.93
2017-10-03T20:53:12.713Z,5.97
2017-10-03T20:55:39.393Z,4.93
2017-10-03T20:58:05.368Z,7.67
2017-10-03T21:00:31.340Z,5.07
2017-10-03T21:02:57.336Z,4.80
2017-10-03T21:05:23.291Z,8.17
2017-10-03T21:07:49.268Z,6.67
2017-10-03T21:10:15.205Z,5.63
2017-10-03T21:12:41.144Z,6.47
2017-10-03T21:15:07.113Z,5.73
2017-10-03T21:17:33.836Z,4.93
2017-10-03T21:20:00.526Z,5.10
2017-10-03T21:22:26.473Z,9.93
2017-10-03T21:24:53.214Z,4.00
2017-10-03T21:27:19.156Z,6.47
2017-10-03T21:29:45.142Z,5.40
2017-10-03T21:32:11.105Z,7.20
2017-10-03T21:34:37.036Z,4.37
2017-10-03T21:37:02.997Z,8.40
2017-10-03T21:39:28.968Z,3.77
2017-10-03T21:42:07.478Z,7.87
2017-10-03T21:44:33.462Z,5.70
2017-10-03T21:46:59.445Z,5.83
2017-10-03T21:49:25.400Z,8.27
2017-10-03T21:51:51.388Z,4.17
2017-10-03T21:54:17.335Z,4.60
2017-10-03T21:56:43.272Z,9.73
2017-10-03T21:59:09.247Z,3.37
2017-10-03T22:01:35.189Z,5.60
2017-10-03T22:04:01.161Z,7.33
2017-10-03T22:06:27.095Z,4.73
2017-10-03T22:08:53.078Z,4.73
2017-10-03T22:11:19.792Z,3.33
2017-10-03T22:13:45.765Z,7.63
2017-10-03T22:16:12.489Z,3.70
2017-10-03T22:18:39.172Z,5.17
2017-10-03T22:21:05.116Z,6.10
2017-10-03T22:23:31.829Z,9.70
2017-10-03T22:25:57.773Z,4.47
2017-10-03T22:28:23.758Z,4.97
2017-10-03T22:30:50.427Z,4.00
2017-10-03T22:33:16.392Z,7.97
2017-10-03T22:35:43.096Z,4.47
2017-10-03T22:38:09.044Z,12.13
2017-10-03T22:40:35.008Z,5.63
2017-10-03T22:43:01.694Z,4.40
2017-10-03T22:45:27.686Z,4.93
2017-10-03T22:47:53.660Z,4.80
2017-10-03T22:50:19.600Z,5.60
2017-10-03T22:52:45.570Z,6.70
2017-10-03T22:55:12.983Z,3.90
2017-10-03T22:57:38.946Z,4.73
2017-10-03T23:00:05.669Z,5.20
2017-10-03T23:02:32.344Z,10.73
2017-10-03T23:04:58.285Z,5.37
2017-10-03T23:07:24.284Z,8.07
2017-10-03T23:09:57.122Z,5.03
2017-10-03T23:12:23.110Z,5.37
2017-10-03T23:14:49.045Z,10.97
2017-10-03T23:17:14.976Z,5.33
2017-10-03T23:19:40.952Z,5.97
2017-10-03T23:22:06.888Z,8.13
2017-10-03T23:24:32.829Z,5.70
2017-10-03T23:26:59.569Z,4.20
2017-10-03T23:29:25.551Z,5.53
2017-10-03T23:31:51.524Z,5.40
2017-10-03T23:34:17.469Z,9.33
2017-10-03T23:36:44.152Z,7.60
2017-10-03T23:39:10.132Z,4.47
2017-10-03T23:41:36.068Z,7.93
2017-10-03T23:44:02.025Z,8.03
2017-10-03T23:46:28.751Z,6.60
2017-10-03T23:48:55.437Z,8.30
2017-10-03T23:51:21.384Z,8.03
2017-10-03T23:53:48.101Z,6.63
2017-10-03T23:56:14.820Z,6.70
2017-10-03T23:58:40.762Z,6.07
